sensor_id;sensor_type;location;lat;lon;timestamp;pressure;altitude;pressure_sealevel;temperature;humidity
4449;BME280;2237;51.870;6.160;2022-12-18T00:00:48;102739.41;;;-2.18;100.00
4449;BME280;2237;51.870;6.160;2022-12-18T00:03:14;102742.16;;;-2.15;100.00
4449;BME280;2237;51.870;6.160;2022-12-18T00:05:50;102736.34;;;-2.12;100.00
4449;BME280;2237;51.870;6.160;2022-12-18T00:08:18;102739.59;;;-2.15;100.00
4449;BME280;2237;51.870;6.160;2022-12-18T00:10:45;102740.38;;;-2.16;100.00
4449;BME280;2237;51.870;6.160;2022-12-18T00:13:12;102735.09;;;-2.19;100.00
4449;BME280;2237;51.870;6.160;2022-12-18T00:15:39;102741.59;;;-2.24;100.00
4449;BME280;2237;51.870;6.160;2022-12-18T00:18:06;102743.84;;;-2.29;100.00
4449;BME280;2237;51.870;6.160;2022-12-18T00:20:39;102747.22;;;-2.30;100.00
4449;BME280;2237;51.870;6.160;2022-12-18T00:23:06;102727.66;;;-2.29;100.00
4449;BME280;2237;51.870;6.160;2022-12-18T00:25:34;102733.66;;;-2.29;100.00
4449;BME280;2237;51.870;6.160;2022-12-18T00:28:02;102738.75;;;-2.29;100.00
4449;BME280;2237;51.870;6.160;2022-12-18T00:30:29;102729.44;;;-2.28;100.00
4449;BME280;2237;51.870;6.160;2022-12-18T00:32:55;102721.00;;;-2.27;100.00
4449;BME280;2237;51.870;6.160;2022-12-18T00:35:22;102714.72;;;-2.32;100.00
4449;BME280;2237;51.870;6.160;2022-12-18T00:37:48;102723.78;;;-2.37;100.00
4449;BME280;2237;51.870;6.160;2022-12-18T00:40:14;102719.38;;;-2.40;100.00
4449;BME280;2237;51.870;6.160;2022-12-18T00:42:41;102718.31;;;-2.43;100.00
4449;BME280;2237;51.870;6.160;2022-12-18T00:45:27;102708.22;;;-2.42;100.00
4449;BME280;2237;51.870;6.160;2022-12-18T00:47:55;102709.19;;;-2.40;100.00
4449;BME280;2237;51.870;6.160;2022-12-18T00:50:23;102703.31;;;-2.52;100.00
4449;BME280;2237;51.870;6.160;2022-12-18T00:52:50;102708.34;;;-2.53;100.00
4449;BME280;2237;51.870;6.160;2022-12-18T00:55:17;102710.91;;;-2.53;100.00
4449;BME280;2237;51.870;6.160;2022-12-18T00:57:44;102710.72;;;-2.56;100.00
4449;BME280;2237;51.870;6.160;2022-12-18T01:00:13;102717.41;;;-2.58;100.00
4449;BME280;2237;51.870;6.160;2022-12-18T01:02:40;102719.25;;;-2.56;100.00
4449;BME280;2237;51.870;6.160;2022-12-18T01:05:09;102726.66;;;-2.46;100.00
4449;BME280;2237;51.870;6.160;2022-12-18T01:07:35;102725.00;;;-2.45;100.00
4449;BME280;2237;51.870;6.160;2022-12-18T01:10:03;102731.88;;;-2.44;100.00
4449;BME280;2237;51.870;6.160;2022-12-18T01:12:29;102727.72;;;-2.42;100.00
4449;BME280;2237;51.870;6.160;2022-12-18T01:14:56;102731.31;;;-2.53;100.00
4449;BME280;2237;51.870;6.160;2022-12-18T01:17:22;102730.41;;;-2.54;100.00
4449;BME280;2237;51.870;6.160;2022-12-18T01:19:49;102735.78;;;-2.49;100.00
4449;BME280;2237;51.870;6.160;2022-12-18T01:22:15;102730.69;;;-2.49;100.00
4449;BME280;2237;51.870;6.160;2022-12-18T01:24:41;102715.81;;;-2.56;100.00
4449;BME280;2237;51.870;6.160;2022-12-18T01:27:08;102716.41;;;-2.60;100.00
4449;BME280;2237;51.870;6.160;2022-12-18T01:29:34;102713.16;;;-2.58;100.00
4449;BME280;2237;51.870;6.160;2022-12-18T01:32:00;102711.09;;;-2.50;100.00
4449;BME280;2237;51.870;6.160;2022-12-18T01:34:27;102693.84;;;-2.54;100.00
4449;BME280;2237;51.870;6.160;2022-12-18T01:36:53;102705.44;;;-2.59;100.00
4449;BME280;2237;51.870;6.160;2022-12-18T01:39:19;102707.78;;;-2.62;100.00
4449;BME280;2237;51.870;6.160;2022-12-18T01:41:46;102699.41;;;-2.74;100.00
4449;BME280;2237;51.870;6.160;2022-12-18T01:50:08;102709.59;;;-2.74;100.00
4449;BME280;2237;51.870;6.160;2022-12-18T01:52:37;102710.94;;;-2.66;100.00
4449;BME280;2237;51.870;6.160;2022-12-18T01:55:05;102716.41;;;-2.60;100.00
4449;BME280;2237;51.870;6.160;2022-12-18T01:57:32;102719.78;;;-2.61;100.00
4449;BME280;2237;51.870;6.160;2022-12-18T02:00:03;102720.72;;;-2.59;100.00
4449;BME280;2237;51.870;6.160;2022-12-18T02:02:33;102719.78;;;-2.61;100.00
4449;BME280;2237;51.870;6.160;2022-12-18T02:05:00;102727.41;;;-2.61;100.00
4449;BME280;2237;51.870;6.160;2022-12-18T02:10:32;102717.03;;;-2.64;100.00
4449;BME280;2237;51.870;6.160;2022-12-18T02:13:13;102715.56;;;-2.74;100.00
4449;BME280;2237;51.870;6.160;2022-12-18T02:15:59;102718.72;;;-2.78;100.00
4449;BME280;2237;51.870;6.160;2022-12-18T02:18:36;102724.00;;;-2.75;100.00
4449;BME280;2237;51.870;6.160;2022-12-18T02:23:56;102719.13;;;-2.85;100.00
4449;BME280;2237;51.870;6.160;2022-12-18T02:26:41;102711.50;;;-2.85;100.00
4449;BME280;2237;51.870;6.160;2022-12-18T02:29:16;102711.38;;;-2.87;100.00
4449;BME280;2237;51.870;6.160;2022-12-18T02:31:49;102704.13;;;-2.80;100.00
4449;BME280;2237;51.870;6.160;2022-12-18T02:34:18;102714.31;;;-2.80;100.00
4449;BME280;2237;51.870;6.160;2022-12-18T02:36:47;102720.94;;;-2.69;100.00
4449;BME280;2237;51.870;6.160;2022-12-18T02:39:15;102716.16;;;-2.65;100.00
4449;BME280;2237;51.870;6.160;2022-12-18T02:41:42;102717.81;;;-2.65;100.00
4449;BME280;2237;51.870;6.160;2022-12-18T02:44:11;102715.25;;;-2.65;100.00
4449;BME280;2237;51.870;6.160;2022-12-18T02:46:41;102720.34;;;-2.65;100.00
4449;BME280;2237;51.870;6.160;2022-12-18T02:49:31;102718.41;;;-2.69;100.00
4449;BME280;2237;51.870;6.160;2022-12-18T02:52:31;102722.59;;;-2.70;100.00
4449;BME280;2237;51.870;6.160;2022-12-18T03:00:43;102697.63;;;-2.75;100.00
4449;BME280;2237;51.870;6.160;2022-12-18T03:03:19;102703.41;;;-2.78;100.00
4449;BME280;2237;51.870;6.160;2022-12-18T03:05:55;102705.06;;;-2.78;100.00
4449;BME280;2237;51.870;6.160;2022-12-18T03:08:27;102698.25;;;-2.79;100.00
4449;BME280;2237;51.870;6.160;2022-12-18T03:10:58;102706.06;;;-2.76;100.00
4449;BME280;2237;51.870;6.160;2022-12-18T03:13:59;102696.47;;;-2.80;100.00
4449;BME280;2237;51.870;6.160;2022-12-18T03:16:28;102705.00;;;-2.80;100.00
4449;BME280;2237;51.870;6.160;2022-12-18T03:19:00;102701.56;;;-2.80;100.00
4449;BME280;2237;51.870;6.160;2022-12-18T03:21:43;102702.44;;;-2.80;100.00
4449;BME280;2237;51.870;6.160;2022-12-18T03:24:11;102701.75;;;-2.77;100.00
4449;BME280;2237;51.870;6.160;2022-12-18T03:26:41;102698.31;;;-2.78;100.00
4449;BME280;2237;51.870;6.160;2022-12-18T03:29:12;102702.19;;;-2.84;100.00
4449;BME280;2237;51.870;6.160;2022-12-18T03:31:42;102698.63;;;-2.87;100.00
4449;BME280;2237;51.870;6.160;2022-12-18T03:34:18;102692.00;;;-2.84;100.00
4449;BME280;2237;51.870;6.160;2022-12-18T03:36:47;102684.41;;;-2.83;100.00
4449;BME280;2237;51.870;6.160;2022-12-18T03:39:14;102688.94;;;-2.79;100.00
4449;BME280;2237;51.870;6.160;2022-12-18T03:41:44;102683.13;;;-2.76;100.00
4449;BME280;2237;51.870;6.160;2022-12-18T03:49:40;102680.66;;;-2.75;100.00
4449;BME280;2237;51.870;6.160;2022-12-18T03:52:18;102679.59;;;-2.78;100.00
4449;BME280;2237;51.870;6.160;2022-12-18T03:54:46;102677.91;;;-2.78;100.00
4449;BME280;2237;51.870;6.160;2022-12-18T03:57:17;102671.59;;;-2.84;100.00
4449;BME280;2237;51.870;6.160;2022-12-18T03:59:44;102663.94;;;-2.84;100.00
4449;BME280;2237;51.870;6.160;2022-12-18T04:02:11;102666.31;;;-2.88;100.00
4449;BME280;2237;51.870;6.160;2022-12-18T04:04:39;102672.38;;;-2.86;100.00
4449;BME280;2237;51.870;6.160;2022-12-18T04:07:08;102661.22;;;-2.88;100.00
4449;BME280;2237;51.870;6.160;2022-12-18T04:09:36;102661.56;;;-2.81;100.00
4449;BME280;2237;51.870;6.160;2022-12-18T04:12:05;102667.22;;;-2.72;100.00
4449;BME280;2237;51.870;6.160;2022-12-18T04:14:31;102665.66;;;-2.70;100.00
4449;BME280;2237;51.870;6.160;2022-12-18T04:17:02;102668.03;;;-2.73;100.00
4449;BME280;2237;51.870;6.160;2022-12-18T04:19:29;102661.06;;;-2.76;100.00
4449;BME280;2237;51.870;6.160;2022-12-18T04:21:55;102650.94;;;-2.74;100.00
4449;BME280;2237;51.870;6.160;2022-12-18T04:24:21;102664.41;;;-2.77;100.00
4449;BME280;2237;51.870;6.160;2022-12-18T04:26:47;102654.97;;;-2.78;100.00
4449;BME280;2237;51.870;6.160;2022-12-18T04:29:14;102656.44;;;-2.81;100.00
4449;BME280;2237;51.870;6.160;2022-12-18T04:31:40;102651.53;;;-2.78;100.00
4449;BME280;2237;51.870;6.160;2022-12-18T04:34:07;102657.44;;;-2.79;100.00
4449;BME280;2237;51.870;6.160;2022-12-18T04:36:33;102655.09;;;-2.76;100.00
4449;BME280;2237;51.870;6.160;2022-12-18T04:38:59;102646.56;;;-2.77;100.00
4449;BME280;2237;51.870;6.160;2022-12-18T04:41:25;102643.41;;;-2.73;100.00
4449;BME280;2237;51.870;6.160;2022-12-18T04:43:52;102632.47;;;-2.85;100.00
4449;BME280;2237;51.870;6.160;2022-12-18T04:46:18;102634.84;;;-2.88;100.00
4449;BME280;2237;51.870;6.160;2022-12-18T04:48:46;102630.81;;;-2.84;100.00
4449;BME280;2237;51.870;6.160;2022-12-18T04:51:12;102634.41;;;-2.81;100.00
4449;BME280;2237;51.870;6.160;2022-12-18T04:53:39;102638.97;;;-2.75;100.00
4449;BME280;2237;51.870;6.160;2022-12-18T04:56:08;102634.88;;;-2.73;100.00
4449;BME280;2237;51.870;6.160;2022-12-18T04:58:36;102634.69;;;-2.76;100.00
4449;BME280;2237;51.870;6.160;2022-12-18T05:01:02;102640.56;;;-2.77;100.00
4449;BME280;2237;51.870;6.160;2022-12-18T05:03:29;102637.13;;;-2.78;100.00
4449;BME280;2237;51.870;6.160;2022-12-18T05:05:56;102641.91;;;-2.69;100.00
4449;BME280;2237;51.870;6.160;2022-12-18T05:08:23;102632.69;;;-2.67;100.00
4449;BME280;2237;51.870;6.160;2022-12-18T05:10:49;102636.47;;;-2.61;100.00
4449;BME280;2237;51.870;6.160;2022-12-18T05:13:15;102633.09;;;-2.74;100.00
4449;BME280;2237;51.870;6.160;2022-12-18T05:15:42;102636.25;;;-2.78;100.00
4449;BME280;2237;51.870;6.160;2022-12-18T05:18:08;102646.56;;;-2.77;100.00
4449;BME280;2237;51.870;6.160;2022-12-18T05:20:35;102655.28;;;-2.73;100.00
4449;BME280;2237;51.870;6.160;2022-12-18T05:23:01;102669.34;;;-2.65;100.00
4449;BME280;2237;51.870;6.160;2022-12-18T05:25:27;102669.44;;;-2.64;100.00
4449;BME280;2237;51.870;6.160;2022-12-18T05:27:53;102670.25;;;-2.65;100.00
4449;BME280;2237;51.870;6.160;2022-12-18T05:30:20;102682.69;;;-2.69;100.00
4449;BME280;2237;51.870;6.160;2022-12-18T05:32:46;102681.03;;;-2.69;100.00
4449;BME280;2237;51.870;6.160;2022-12-18T05:35:12;102685.75;;;-2.75;100.00
4449;BME280;2237;51.870;6.160;2022-12-18T05:37:39;102687.34;;;-2.77;100.00
4449;BME280;2237;51.870;6.160;2022-12-18T05:40:09;102686.84;;;-2.71;100.00
4449;BME280;2237;51.870;6.160;2022-12-18T05:42:35;102686.31;;;-2.66;100.00
4449;BME280;2237;51.870;6.160;2022-12-18T05:45:02;102701.25;;;-2.72;100.00
4449;BME280;2237;51.870;6.160;2022-12-18T05:47:29;102693.09;;;-2.66;100.00
4449;BME280;2237;51.870;6.160;2022-12-18T05:49:55;102700.16;;;-2.62;100.00
4449;BME280;2237;51.870;6.160;2022-12-18T05:52:22;102700.41;;;-2.58;100.00
4449;BME280;2237;51.870;6.160;2022-12-18T05:54:48;102697.84;;;-2.58;100.00
4449;BME280;2237;51.870;6.160;2022-12-18T05:57:14;102695.41;;;-2.56;100.00
4449;BME280;2237;51.870;6.160;2022-12-18T05:59:41;102685.03;;;-2.59;100.00
4449;BME280;2237;51.870;6.160;2022-12-18T06:02:07;102675.97;;;-2.54;100.00
4449;BME280;2237;51.870;6.160;2022-12-18T06:04:34;102668.84;;;-2.60;100.00
4449;BME280;2237;51.870;6.160;2022-12-18T06:07:03;102667.91;;;-2.47;100.00
4449;BME280;2237;51.870;6.160;2022-12-18T06:09:29;102666.50;;;-2.42;100.00
4449;BME280;2237;51.870;6.160;2022-12-18T06:11:56;102670.84;;;-2.41;100.00
4449;BME280;2237;51.870;6.160;2022-12-18T06:14:22;102655.41;;;-2.43;100.00
4449;BME280;2237;51.870;6.160;2022-12-18T06:16:50;102654.00;;;-2.38;100.00
4449;BME280;2237;51.870;6.160;2022-12-18T06:19:17;102655.78;;;-2.37;100.00
4449;BME280;2237;51.870;6.160;2022-12-18T06:21:44;102648.13;;;-2.37;100.00
4449;BME280;2237;51.870;6.160;2022-12-18T06:24:10;102647.88;;;-2.41;100.00
4449;BME280;2237;51.870;6.160;2022-12-18T06:26:38;102645.59;;;-2.37;100.00
4449;BME280;2237;51.870;6.160;2022-12-18T06:29:05;102656.84;;;-2.33;100.00
4449;BME280;2237;51.870;6.160;2022-12-18T06:31:31;102645.50;;;-2.38;100.00
4449;BME280;2237;51.870;6.160;2022-12-18T06:33:58;102651.56;;;-2.36;100.00
4449;BME280;2237;51.870;6.160;2022-12-18T06:36:24;102647.25;;;-2.37;100.00
4449;BME280;2237;51.870;6.160;2022-12-18T06:38:50;102643.91;;;-2.36;100.00
4449;BME280;2237;51.870;6.160;2022-12-18T06:41:19;102639.59;;;-2.37;100.00
4449;BME280;2237;51.870;6.160;2022-12-18T06:43:45;102623.50;;;-2.36;100.00
4449;BME280;2237;51.870;6.160;2022-12-18T06:46:12;102630.38;;;-2.35;100.00
4449;BME280;2237;51.870;6.160;2022-12-18T06:48:39;102628.16;;;-2.29;100.00
4449;BME280;2237;51.870;6.160;2022-12-18T06:51:05;102622.44;;;-2.25;100.00
4449;BME280;2237;51.870;6.160;2022-12-18T06:53:32;102625.78;;;-2.26;100.00
4449;BME280;2237;51.870;6.160;2022-12-18T06:56:02;102626.59;;;-2.27;100.00
4449;BME280;2237;51.870;6.160;2022-12-18T06:58:35;102618.94;;;-2.27;100.00
4449;BME280;2237;51.870;6.160;2022-12-18T07:01:06;102609.50;;;-2.28;100.00
4449;BME280;2237;51.870;6.160;2022-12-18T07:03:33;102612.00;;;-2.30;100.00
4449;BME280;2237;51.870;6.160;2022-12-18T07:06:00;102609.44;;;-2.30;100.00
4449;BME280;2237;51.870;6.160;2022-12-18T07:08:26;102609.50;;;-2.28;100.00
4449;BME280;2237;51.870;6.160;2022-12-18T07:10:52;102604.41;;;-2.28;100.00
4449;BME280;2237;51.870;6.160;2022-12-18T07:13:22;102613.72;;;-2.29;100.00
4449;BME280;2237;51.870;6.160;2022-12-18T07:15:48;102598.19;;;-2.33;100.00
4449;BME280;2237;51.870;6.160;2022-12-18T07:18:15;102609.44;;;-2.30;100.00
4449;BME280;2237;51.870;6.160;2022-12-18T07:20:41;102600.38;;;-2.24;100.00
4449;BME280;2237;51.870;6.160;2022-12-18T07:23:07;102597.66;;;-2.13;100.00
4449;BME280;2237;51.870;6.160;2022-12-18T07:25:38;102602.22;;;-2.22;100.00
4449;BME280;2237;51.870;6.160;2022-12-18T07:28:05;102611.47;;;-2.24;100.00
4449;BME280;2237;51.870;6.160;2022-12-18T07:30:32;102605.31;;;-2.13;100.00
4449;BME280;2237;51.870;6.160;2022-12-18T07:32:58;102610.47;;;-2.11;100.00
4449;BME280;2237;51.870;6.160;2022-12-18T07:35:24;102611.72;;;-2.05;100.00
4449;BME280;2237;51.870;6.160;2022-12-18T07:37:51;102614.00;;;-1.95;100.00
4449;BME280;2237;51.870;6.160;2022-12-18T07:40:17;102614.00;;;-1.95;100.00
4449;BME280;2237;51.870;6.160;2022-12-18T07:42:43;102607.38;;;-1.91;100.00
4449;BME280;2237;51.870;6.160;2022-12-18T07:45:10;102589.44;;;-1.93;100.00
4449;BME280;2237;51.870;6.160;2022-12-18T07:47:37;102590.22;;;-1.94;100.00
4449;BME280;2237;51.870;6.160;2022-12-18T07:50:04;102592.69;;;-1.95;100.00
4449;BME280;2237;51.870;6.160;2022-12-18T07:52:31;102587.06;;;-1.90;100.00
4449;BME280;2237;51.870;6.160;2022-12-18T07:54:58;102577.81;;;-1.88;100.00
4449;BME280;2237;51.870;6.160;2022-12-18T07:57:24;102573.75;;;-1.84;100.00
4449;BME280;2237;51.870;6.160;2022-12-18T08:00:11;102568.41;;;-1.89;100.00
4449;BME280;2237;51.870;6.160;2022-12-18T08:02:38;102574.09;;;-1.78;100.00
4449;BME280;2237;51.870;6.160;2022-12-18T08:05:05;102570.44;;;-1.67;100.00
4449;BME280;2237;51.870;6.160;2022-12-18T08:07:32;102572.22;;;-1.66;100.00
4449;BME280;2237;51.870;6.160;2022-12-18T08:09:58;102568.22;;;-1.61;100.00
4449;BME280;2237;51.870;6.160;2022-12-18T08:12:25;102576.63;;;-1.63;100.00
4449;BME280;2237;51.870;6.160;2022-12-18T08:14:51;102575.34;;;-1.55;100.00
4449;BME280;2237;51.870;6.160;2022-12-18T08:17:19;102565.00;;;-1.42;100.00
4449;BME280;2237;51.870;6.160;2022-12-18T08:19:46;102559.25;;;-1.38;100.00
4449;BME280;2237;51.870;6.160;2022-12-18T08:22:12;102541.31;;;-1.40;100.00
4449;BME280;2237;51.870;6.160;2022-12-18T08:24:38;102544.25;;;-1.32;100.00
4449;BME280;2237;51.870;6.160;2022-12-18T08:27:04;102558.13;;;-1.27;100.00
4449;BME280;2237;51.870;6.160;2022-12-18T08:29:51;102554.78;;;-1.26;100.00
4449;BME280;2237;51.870;6.160;2022-12-18T08:32:17;102557.50;;;-1.23;100.00
4449;BME280;2237;51.870;6.160;2022-12-18T08:34:44;102557.84;;;-1.17;100.00
4449;BME280;2237;51.870;6.160;2022-12-18T08:37:10;102552.31;;;-1.08;100.00
4449;BME280;2237;51.870;6.160;2022-12-18T08:39:36;102553.44;;;-1.03;100.00
4449;BME280;2237;51.870;6.160;2022-12-18T08:42:03;102547.94;;;-1.11;100.00
4449;BME280;2237;51.870;6.160;2022-12-18T08:44:48;102545.78;;;-1.03;100.00
4449;BME280;2237;51.870;6.160;2022-12-18T08:47:14;102548.50;;;-1.00;100.00
4449;BME280;2237;51.870;6.160;2022-12-18T08:49:40;102548.88;;;-0.93;100.00
4449;BME280;2237;51.870;6.160;2022-12-18T08:52:07;102547.66;;;-0.83;100.00
4449;BME280;2237;51.870;6.160;2022-12-18T08:54:33;102553.81;;;-0.80;100.00
4449;BME280;2237;51.870;6.160;2022-12-18T08:57:00;102553.19;;;-0.76;100.00
4449;BME280;2237;51.870;6.160;2022-12-18T08:59:26;102556.16;;;-0.84;100.00
4449;BME280;2237;51.870;6.160;2022-12-18T09:01:54;102566.41;;;-0.84;100.00
4449;BME280;2237;51.870;6.160;2022-12-18T09:04:21;102569.16;;;-0.80;100.00
4449;BME280;2237;51.870;6.160;2022-12-18T09:06:48;102559.72;;;-0.81;100.00
4449;BME280;2237;51.870;6.160;2022-12-18T09:09:14;102559.56;;;-0.84;100.00
4449;BME280;2237;51.870;6.160;2022-12-18T09:11:41;102543.13;;;-0.73;100.00
4449;BME280;2237;51.870;6.160;2022-12-18T09:14:09;102554.78;;;-0.62;100.00
4449;BME280;2237;51.870;6.160;2022-12-18T09:16:36;102564.75;;;-0.50;100.00
4449;BME280;2237;51.870;6.160;2022-12-18T09:19:03;102548.66;;;-0.47;100.00
4449;BME280;2237;51.870;6.160;2022-12-18T09:21:33;102544.63;;;-0.42;100.00
4449;BME280;2237;51.870;6.160;2022-12-18T09:24:02;102530.53;;;-0.34;100.00
4449;BME280;2237;51.870;6.160;2022-12-18T09:26:30;102529.75;;;-0.33;100.00
4449;BME280;2237;51.870;6.160;2022-12-18T09:28:56;102522.13;;;-0.32;100.00
4449;BME280;2237;51.870;6.160;2022-12-18T09:31:23;102520.38;;;-0.33;100.00
4449;BME280;2237;51.870;6.160;2022-12-18T09:33:50;102513.59;;;-0.32;100.00
4449;BME280;2237;51.870;6.160;2022-12-18T09:36:18;102503.50;;;-0.29;100.00
4449;BME280;2237;51.870;6.160;2022-12-18T09:38:45;102515.88;;;-0.03;99.67
4449;BME280;2237;51.870;6.160;2022-12-18T09:44:02;102524.94;;;0.08;97.75
4449;BME280;2237;51.870;6.160;2022-12-18T09:46:35;102526.31;;;0.19;96.76
4449;BME280;2237;51.870;6.160;2022-12-18T09:49:10;102512.47;;;0.16;95.83
4449;BME280;2237;51.870;6.160;2022-12-18T09:52:02;102519.69;;;0.24;96.63
4449;BME280;2237;51.870;6.160;2022-12-18T09:54:38;102517.41;;;0.30;95.92
4449;BME280;2237;51.870;6.160;2022-12-18T09:57:05;102515.19;;;0.38;95.12
4449;BME280;2237;51.870;6.160;2022-12-18T09:59:35;102526.56;;;0.62;94.97
4449;BME280;2237;51.870;6.160;2022-12-18T10:02:17;102520.03;;;0.69;94.14
4449;BME280;2237;51.870;6.160;2022-12-18T10:04:52;102507.34;;;0.52;93.75
4449;BME280;2237;51.870;6.160;2022-12-18T10:08:10;102505.03;;;0.58;93.29
4449;BME280;2237;51.870;6.160;2022-12-18T10:10:50;102490.78;;;0.64;92.92
4449;BME280;2237;51.870;6.160;2022-12-18T10:13:28;102487.66;;;0.71;93.05
4449;BME280;2237;51.870;6.160;2022-12-18T10:16:14;102491.22;;;0.74;91.75
4449;BME280;2237;51.870;6.160;2022-12-18T10:19:13;102478.41;;;0.74;91.94
4449;BME280;2237;51.870;6.160;2022-12-18T10:25:06;102487.91;;;0.77;92.12
4449;BME280;2237;51.870;6.160;2022-12-18T10:27:40;102467.50;;;0.78;92.11
4449;BME280;2237;51.870;6.160;2022-12-18T10:30:19;102464.72;;;0.93;91.51
4449;BME280;2237;51.870;6.160;2022-12-18T10:32:46;102468.91;;;1.11;90.46
4449;BME280;2237;51.870;6.160;2022-12-18T10:35:24;102460.94;;;1.25;89.25
4449;BME280;2237;51.870;6.160;2022-12-18T10:41:08;102446.84;;;1.36;87.65
4449;BME280;2237;51.870;6.160;2022-12-18T10:46:53;102423.75;;;1.36;86.93
4449;BME280;2237;51.870;6.160;2022-12-18T10:49:30;102436.84;;;1.42;86.33
4449;BME280;2237;51.870;6.160;2022-12-18T10:52:05;102428.94;;;1.37;86.46
4449;BME280;2237;51.870;6.160;2022-12-18T10:54:34;102435.81;;;1.38;85.91
4449;BME280;2237;51.870;6.160;2022-12-18T10:59:54;102430.09;;;1.45;86.01
4449;BME280;2237;51.870;6.160;2022-12-18T11:02:36;102427.91;;;1.54;85.42
4449;BME280;2237;51.870;6.160;2022-12-18T11:05:32;102440.06;;;1.58;84.51
4449;BME280;2237;51.870;6.160;2022-12-18T11:08:00;102420.56;;;1.63;83.74
4449;BME280;2237;51.870;6.160;2022-12-18T11:10:35;102423.25;;;1.66;82.53
4449;BME280;2237;51.870;6.160;2022-12-18T11:13:22;102415.75;;;1.71;82.63
4449;BME280;2237;51.870;6.160;2022-12-18T11:15:50;102410.94;;;1.80;82.08
4449;BME280;2237;51.870;6.160;2022-12-18T11:18:22;102416.97;;;1.81;81.27
4449;BME280;2237;51.870;6.160;2022-12-18T11:20:53;102410.22;;;1.83;80.64
4449;BME280;2237;51.870;6.160;2022-12-18T11:23:24;102419.53;;;1.81;81.27
4449;BME280;2237;51.870;6.160;2022-12-18T11:25:54;102410.13;;;2.03;81.21
4449;BME280;2237;51.870;6.160;2022-12-18T11:28:36;102407.44;;;2.22;80.32
4449;BME280;2237;51.870;6.160;2022-12-18T11:31:27;102417.16;;;2.07;78.75
4449;BME280;2237;51.870;6.160;2022-12-18T11:34:17;102391.56;;;2.10;78.69
4449;BME280;2237;51.870;6.160;2022-12-18T11:36:57;102397.72;;;2.14;78.27
4449;BME280;2237;51.870;6.160;2022-12-18T11:39:42;102396.66;;;2.33;78.04
4449;BME280;2237;51.870;6.160;2022-12-18T11:42:22;102382.41;;;2.41;76.91
4449;BME280;2237;51.870;6.160;2022-12-18T11:45:21;102379.06;;;2.43;75.71
4449;BME280;2237;51.870;6.160;2022-12-18T11:48:01;102377.97;;;2.60;75.61
4449;BME280;2237;51.870;6.160;2022-12-18T11:50:52;102386.59;;;2.62;73.68
4449;BME280;2237;51.870;6.160;2022-12-18T11:53:20;102382.09;;;2.55;73.73
4449;BME280;2237;51.870;6.160;2022-12-18T11:58:43;102378.53;;;2.77;74.32
4449;BME280;2237;51.870;6.160;2022-12-18T12:04:27;102367.88;;;2.66;72.27
4449;BME280;2237;51.870;6.160;2022-12-18T12:18:22;102325.41;;;2.52;72.23
4449;BME280;2237;51.870;6.160;2022-12-18T12:21:15;102330.66;;;2.55;71.42
4449;BME280;2237;51.870;6.160;2022-12-18T12:23:57;102324.53;;;2.52;71.68
4449;BME280;2237;51.870;6.160;2022-12-18T12:31:54;102322.16;;;2.83;71.75
4449;BME280;2237;51.870;6.160;2022-12-18T12:34:32;102325.44;;;2.79;71.40
4449;BME280;2237;51.870;6.160;2022-12-18T12:39:50;102332.44;;;2.83;71.00
4449;BME280;2237;51.870;6.160;2022-12-18T12:42:43;102330.69;;;2.82;70.32
4449;BME280;2237;51.870;6.160;2022-12-18T12:45:36;102316.59;;;2.71;70.16
4449;BME280;2237;51.870;6.160;2022-12-18T12:48:05;102310.09;;;2.55;70.38
4449;BME280;2237;51.870;6.160;2022-12-18T12:50:36;102303.59;;;2.66;70.92
4449;BME280;2237;51.870;6.160;2022-12-18T12:53:07;102301.13;;;2.69;70.85
4449;BME280;2237;51.870;6.160;2022-12-18T12:55:38;102296.31;;;2.80;71.03
4449;BME280;2237;51.870;6.160;2022-12-18T12:58:14;102287.16;;;2.88;70.69
4449;BME280;2237;51.870;6.160;2022-12-18T13:01:04;102287.13;;;2.87;69.88
4449;BME280;2237;51.870;6.160;2022-12-18T13:03:43;102288.56;;;2.78;69.61
4449;BME280;2237;51.870;6.160;2022-12-18T13:06:23;102285.94;;;2.77;69.71
4449;BME280;2237;51.870;6.160;2022-12-18T13:08:55;102280.94;;;2.81;69.72
4449;BME280;2237;51.870;6.160;2022-12-18T13:11:42;102266.38;;;2.82;70.05
4449;BME280;2237;51.870;6.160;2022-12-18T13:14:31;102269.09;;;2.61;69.58
4449;BME280;2237;51.870;6.160;2022-12-18T13:19:51;102265.31;;;2.50;70.89
4449;BME280;2237;51.870;6.160;2022-12-18T13:22:30;102261.72;;;2.45;70.62
4449;BME280;2237;51.870;6.160;2022-12-18T13:24:57;102252.44;;;2.49;70.71
4449;BME280;2237;51.870;6.160;2022-12-18T13:28:15;102253.13;;;2.70;70.60
4449;BME280;2237;51.870;6.160;2022-12-18T13:40:59;102244.94;;;2.56;70.33
4449;BME280;2237;51.870;6.160;2022-12-18T13:43:36;102232.47;;;2.67;70.87
4449;BME280;2237;51.870;6.160;2022-12-18T13:46:23;102236.81;;;2.69;70.90
4449;BME280;2237;51.870;6.160;2022-12-18T13:51:41;102219.53;;;2.65;70.45
4449;BME280;2237;51.870;6.160;2022-12-18T13:54:18;102227.91;;;2.58;70.28
4449;BME280;2237;51.870;6.160;2022-12-18T13:56:47;102226.94;;;2.56;70.21
4449;BME280;2237;51.870;6.160;2022-12-18T13:59:20;102230.47;;;2.58;70.25
4449;BME280;2237;51.870;6.160;2022-12-18T14:04:25;102232.56;;;2.70;69.69
4449;BME280;2237;51.870;6.160;2022-12-18T14:06:56;102228.38;;;2.73;69.56
4449;BME280;2237;51.870;6.160;2022-12-18T14:09:29;102221.28;;;2.66;68.54
4449;BME280;2237;51.870;6.160;2022-12-18T14:11:58;102217.75;;;2.63;68.74
4449;BME280;2237;51.870;6.160;2022-12-18T14:14:46;102214.41;;;2.65;68.57
4449;BME280;2237;51.870;6.160;2022-12-18T14:17:15;102210.94;;;2.65;68.90
4449;BME280;2237;51.870;6.160;2022-12-18T14:19:50;102200.75;;;2.68;69.59
4449;BME280;2237;51.870;6.160;2022-12-18T14:22:23;102205.56;;;2.57;69.36
4449;BME280;2237;51.870;6.160;2022-12-18T14:27:44;102203.59;;;2.50;69.69
4449;BME280;2237;51.870;6.160;2022-12-18T14:30:31;102200.06;;;2.47;70.06
4449;BME280;2237;51.870;6.160;2022-12-18T14:35:39;102179.47;;;2.45;70.53
4449;BME280;2237;51.870;6.160;2022-12-18T14:40:58;102194.16;;;2.49;70.60
4449;BME280;2237;51.870;6.160;2022-12-18T14:43:31;102185.41;;;2.44;70.37
4449;BME280;2237;51.870;6.160;2022-12-18T14:45:58;102187.97;;;2.44;70.69
4449;BME280;2237;51.870;6.160;2022-12-18T14:51:05;102171.03;;;2.49;70.57
4449;BME280;2237;51.870;6.160;2022-12-18T14:53:35;102167.22;;;2.38;70.97
4449;BME280;2237;51.870;6.160;2022-12-18T14:58:45;102159.59;;;2.41;70.71
4449;BME280;2237;51.870;6.160;2022-12-18T15:01:24;102157.38;;;2.25;71.29
4449;BME280;2237;51.870;6.160;2022-12-18T15:03:52;102153.16;;;2.27;71.27